| time (UTC) | temp F | wind direction | speed MPH | gust MPH | rain 1hr in | rain 24hr in | rain mn in | humidity % | barometer mb |
| 20260503060128 | 47 | 15 | 0.0 | 6.0 | 0.00 | 0.24 | 0.03 | 92 | 1012.9 |
| 20260503055115 | 47 | 20 | 0.0 | 6.0 | 0.00 | 0.24 | 0.03 | 92 | 1012.9 |
| 20260503054046 | 47 | 37 | 0.0 | 5.0 | 0.00 | 0.24 | 0.03 | 92 | 1013.0 |
| 20260503053041 | 47 | 23 | 0.0 | 3.0 | 0.00 | 0.24 | 0.03 | 92 | 1013.0 |
| 20260503052024 | 47 | 18 | 0.0 | 5.0 | 0.00 | 0.24 | 0.03 | 92 | 1013.0 |
| 20260503051033 | 47 | 51 | 0.0 | 7.0 | 0.00 | 0.24 | 0.03 | 92 | 1013.0 |
| 20260503050009 | 47 | 51 | 1.0 | 7.0 | 0.00 | 0.24 | 0.03 | 92 | 1013.0 |
| 20260503044950 | 47 | 16 | 0.0 | 3.0 | 0.00 | 0.24 | 0.03 | 92 | 1013.0 |
| 20260503044004 | 47 | 9 | 0.0 | 3.0 | 0.00 | 0.24 | 0.03 | 92 | 1013.0 |
| 20260503043012 | 47 | 28 | 0.0 | 3.0 | 0.00 | 0.24 | 0.03 | 92 | 1013.0 |
| 20260503040814 | 47 | 38 | 0.0 | 2.0 | 0.00 | 0.23 | 0.02 | 92 | 1013.1 |
| 20260503034706 | 48 | 0 | 0.0 | 5.0 | 0.00 | 0.23 | 0.02 | 92 | 1013.1 |
| 20260503033635 | 48 | 25 | 0.0 | 4.0 | 0.00 | 0.23 | 0.02 | 92 | 1013.1 |
| 20260503032657 | 48 | 41 | 0.0 | 3.0 | 0.00 | 0.22 | 0.01 | 92 | 1013.2 |
| 20260503030522 | 48 | 13 | 0.0 | 4.0 | 0.00 | 0.22 | 0.01 | 92 | 1013.1 |
| 20260503025509 | 48 | 16 | 0.0 | 1.0 | 0.00 | 0.22 | 0.00 | 92 | 1013.1 |
| 20260503024522 | 48 | 10 | 0.0 | 4.0 | 0.00 | 0.22 | 0.00 | 92 | 1013.1 |
| 20260503023448 | 48 | 9 | 0.0 | 1.0 | 0.00 | 0.22 | 0.00 | 92 | 1013.1 |
| 20260503022513 | 48 | 36 | 0.0 | 3.0 | 0.00 | 0.22 | 0.00 | 92 | 1013.1 |
| 20260503021500 | 48 | 30 | 0.0 | 4.0 | 0.00 | 0.22 | 0.00 | 92 | 1013.1 |
| 20260503020502 | 48 | 6 | 0.0 | 1.0 | 0.00 | 0.22 | 0.00 | 92 | 1013.1 |
| 20260503014331 | 48 | 18 | 0.0 | 0.0 | 0.00 | 0.21 | 0.00 | 92 | 1013.2 |
| 20260503013308 | 48 | 256 | 0.0 | 1.0 | 0.00 | 0.21 | 0.00 | 91 | 1013.2 |
| 20260503012235 | 48 | 132 | 0.0 | 0.0 | 0.00 | 0.21 | 0.00 | 91 | 1013.3 |
| 20260503011212 | 48 | 8 | 0.0 | 0.0 | 0.00 | 0.21 | 0.00 | 91 | 1013.3 |
| 20260503010138 | 48 | 91 | 0.0 | 2.0 | 0.00 | 0.21 | 0.00 | 91 | 1013.4 |
| 20260503005108 | 48 | 36 | 0.0 | 3.0 | 0.00 | 0.21 | 0.00 | 91 | 1013.3 |
| 20260503004116 | 48 | 32 | 0.0 | 3.0 | 0.00 | 0.21 | 0.00 | 91 | 1013.3 |
| 20260503003101 | 48 | 39 | 0.0 | 3.0 | 0.00 | 0.21 | 0.00 | 91 | 1013.4 |
| 20260503002123 | 48 | 18 | 0.0 | 3.0 | 0.00 | 0.21 | 0.00 | 91 | 1013.6 |
| 20260503001052 | 48 | 58 | 0.0 | 2.0 | 0.00 | 0.21 | 0.00 | 91 | 1013.6 |
| 20260502235006 | 48 | 8 | 0.0 | 3.0 | 0.00 | 0.21 | 0.00 | 90 | 1013.7 |
| 20260502234011 | 48 | 23 | 0.0 | 2.0 | 0.00 | 0.21 | 0.00 | 90 | 1013.8 |
| 20260502233011 | 48 | 56 | 0.0 | 5.0 | 0.00 | 0.21 | 0.00 | 90 | 1013.8 |
| 20260502232005 | 48 | 27 | 0.0 | 3.0 | 0.00 | 0.21 | 0.00 | 90 | 1013.8 |
| 20260502231003 | 48 | 25 | 0.0 | 5.0 | 0.00 | 0.21 | 0.00 | 90 | 1013.9 |
| 20260502225948 | 48 | 33 | 0.0 | 1.0 | 0.00 | 0.21 | 0.21 | 90 | 1013.9 |
| 20260502224948 | 48 | 19 | 0.0 | 1.0 | 0.00 | 0.21 | 0.21 | 90 | 1013.9 |
| 20260502222732 | 49 | 20 | 0.0 | 3.0 | 0.00 | 0.21 | 0.21 | 91 | 1013.8 |
| 20260502221753 | 49 | 34 | 0.0 | 1.0 | 0.00 | 0.21 | 0.21 | 91 | 1013.8 |
| 20260502220722 | 49 | 17 | 0.0 | 4.0 | 0.00 | 0.21 | 0.21 | 91 | 1013.8 |
| 20260502215712 | 49 | 33 | 0.0 | 5.0 | 0.00 | 0.21 | 0.21 | 90 | 1013.8 |
| 20260502214638 | 49 | 27 | 0.0 | 8.0 | 0.00 | 0.21 | 0.21 | 90 | 1013.9 |
| 20260502213611 | 49 | 30 | 0.0 | 8.0 | 0.00 | 0.21 | 0.21 | 90 | 1013.8 |
| 20260502212552 | 50 | 25 | 0.0 | 3.0 | 0.00 | 0.21 | 0.21 | 90 | 1013.8 |
| 20260502211552 | 50 | 22 | 0.0 | 3.0 | 0.00 | 0.20 | 0.20 | 89 | 1013.8 |
| 20260502210538 | 50 | 12 | 0.0 | 5.0 | 0.00 | 0.20 | 0.20 | 89 | 1013.8 |
| 20260502205523 | 51 | 285 | 0.0 | 5.0 | 0.00 | 0.20 | 0.20 | 88 | 1013.7 |
| 20260502204535 | 51 | 327 | 0.0 | 4.0 | 0.00 | 0.20 | 0.20 | 88 | 1013.7 |
| 20260502203500 | 52 | 39 | 0.0 | 4.0 | 0.00 | 0.20 | 0.20 | 87 | 1013.7 |
| 20260502202454 | 53 | 50 | 0.0 | 3.0 | 0.00 | 0.20 | 0.20 | 86 | 1013.6 |
| 20260502201425 | 54 | 35 | 0.0 | 3.0 | 0.00 | 0.20 | 0.20 | 88 | 1013.5 |
| 20260502200407 | 54 | 66 | 0.0 | 0.0 | 0.00 | 0.20 | 0.20 | 88 | 1013.3 |
| 20260502195424 | 54 | 66 | 0.0 | 0.0 | 0.00 | 0.20 | 0.20 | 88 | 1013.4 |
| 20260502192110 | 55 | 66 | 0.0 | 0.0 | 0.00 | 0.20 | 0.20 | 88 | 1013.2 |
| 20260502191050 | 55 | 66 | 0.0 | 0.0 | 0.00 | 0.20 | 0.20 | 88 | 1013.1 |
| 20260502190036 | 55 | 66 | 0.0 | 0.0 | 0.00 | 0.20 | 0.20 | 86 | 1013.1 |
| 20260502183900 | 56 | 66 | 0.0 | 0.0 | 0.00 | 0.20 | 0.20 | 84 | 1013.2 |
| 20260502182917 | 56 | 66 | 0.0 | 0.0 | 0.00 | 0.20 | 0.20 | 86 | 1013.0 |
| 20260502181909 | 56 | 28 | 0.0 | 0.0 | 0.00 | 0.20 | 0.20 | 86 | 1013.0 |
| 20260502180844 | 56 | 260 | 0.0 | 0.0 | 0.00 | 0.20 | 0.20 | 86 | 1012.9 |
| 20260502163507 | 55 | 259 | 0.0 | 0.0 | 0.00 | 0.20 | 0.20 | 85 | 1013.4 |
| 20260502162459 | 55 | 257 | 0.0 | 0.0 | 0.00 | 0.20 | 0.20 | 87 | 1013.3 |
| 20260502161507 | 55 | 343 | 0.0 | 0.0 | 0.00 | 0.20 | 0.20 | 88 | 1013.4 |
| 20260502160453 | 54 | 345 | 0.0 | 0.0 | 0.00 | 0.20 | 0.20 | 89 | 1013.5 |
| 20260502122659 | 58 | 229 | 0.0 | 4.0 | 0.00 | 0.00 | 0.00 | 75 | 1014.4 |
| 20260502120527 | 58 | 189 | 0.0 | 3.0 | 0.00 | 0.00 | 0.00 | 76 | 1014.4 |
| 20260502115530 | 58 | 153 | 0.0 | 1.0 | 0.00 | 0.00 | 0.00 | 76 | 1014.4 |
| 20260502114531 | 58 | 203 | 0.0 | 2.0 | 0.00 | 0.00 | 0.00 | 77 | 1014.5 |
| 20260502113548 | 57 | 167 | 0.0 | 0.0 | 0.00 | 0.00 | 0.00 | 78 | 1014.4 |
| 20260502111446 | 57 | 231 | 0.0 | 1.0 | 0.00 | 0.00 | 0.00 | 79 | 1014.5 |
| 20260502110417 | 58 | 278 | 0.0 | 3.0 | 0.00 | 0.00 | 0.00 | 78 | 1014.6 |
| 20260502105355 | 58 | 319 | 0.0 | 0.0 | 0.00 | 0.00 | 0.00 | 78 | 1014.5 |
| 20260502104350 | 59 | 278 | 0.0 | 0.0 | 0.00 | 0.00 | 0.00 | 77 | 1014.6 |
| 20260502102254 | 58 | 323 | 0.0 | 0.0 | 0.00 | 0.00 | 0.00 | 79 | 1014.7 |
| 20260502101223 | 57 | 224 | 0.0 | 0.0 | 0.00 | 0.00 | 0.00 | 78 | 1014.7 |
| 20260502100216 | 57 | 228 | 0.0 | 1.0 | 0.00 | 0.00 | 0.00 | 78 | 1014.8 |
| 20260502091046 | 56 | 240 | 0.0 | 0.0 | 0.00 | 0.00 | 0.00 | 80 | 1014.8 |
| 20260502070516 | 51 | 205 | 0.0 | 0.0 | 0.00 | 0.00 | 0.00 | 88 | 1014.6 |
| 20260502065512 | 50 | 222 | 0.0 | 0.0 | 0.00 | 0.00 | 0.00 | 88 | 1014.6 |
| 20260502064448 | 50 | 145 | 0.0 | 1.0 | 0.00 | 0.00 | 0.00 | 89 | 1014.7 |
| 20260502063453 | 50 | 193 | 0.0 | 0.0 | 0.00 | 0.00 | 0.00 | 89 | 1014.8 |